sensor_id;sensor_type;location;lat;lon;timestamp;pressure;altitude;pressure_sealevel;temperature;humidity
64025;BME280;50266;57.446;26.936;2023-02-14T00:00:28;99807.23;;;-0.46;100.0
64025;BME280;50266;57.446;26.936;2023-02-14T00:01:28;99812.3;;;-0.49;100.0
64025;BME280;50266;57.446;26.936;2023-02-14T00:02:28;99809.33;;;-0.47;100.0
64025;BME280;50266;57.446;26.936;2023-02-14T00:03:28;99814.78;;;-0.37;100.0
64025;BME280;50266;57.446;26.936;2023-02-14T00:04:28;99815.58;;;-0.44;100.0
64025;BME280;50266;57.446;26.936;2023-02-14T00:05:28;99817.39;;;-0.52;100.0
64025;BME280;50266;57.446;26.936;2023-02-14T00:06:29;99814.86;;;-0.38;100.0
64025;BME280;50266;57.446;26.936;2023-02-14T00:07:29;99818.27;;;-0.45;100.0
64025;BME280;50266;57.446;26.936;2023-02-14T00:08:28;99815.38;;;-0.48;100.0
64025;BME280;50266;57.446;26.936;2023-02-14T00:09:28;99815.56;;;-0.46;100.0
64025;BME280;50266;57.446;26.936;2023-02-14T00:10:28;99816.16;;;-0.46;100.0
64025;BME280;50266;57.446;26.936;2023-02-14T00:11:28;99821.16;;;-0.46;100.0
64025;BME280;50266;57.446;26.936;2023-02-14T00:12:28;99818.23;;;-0.46;100.0
64025;BME280;50266;57.446;26.936;2023-02-14T00:13:28;99816.83;;;-0.39;100.0
64025;BME280;50266;57.446;26.936;2023-02-14T00:14:28;99826.36;;;-0.44;100.0
64025;BME280;50266;57.446;26.936;2023-02-14T00:15:28;99824.16;;;-0.53;100.0
64025;BME280;50266;57.446;26.936;2023-02-14T00:16:28;99831.98;;;-0.62;100.0
64025;BME280;50266;57.446;26.936;2023-02-14T00:17:28;99830.7;;;-0.67;100.0
64025;BME280;50266;57.446;26.936;2023-02-14T00:18:28;99832.74;;;-0.68;100.0
64025;BME280;50266;57.446;26.936;2023-02-14T00:19:28;99838.11;;;-0.59;100.0
64025;BME280;50266;57.446;26.936;2023-02-14T00:20:28;99833.75;;;-0.58;100.0
64025;BME280;50266;57.446;26.936;2023-02-14T00:21:28;99831.56;;;-0.65;100.0
64025;BME280;50266;57.446;26.936;2023-02-14T00:22:28;99834.77;;;-0.66;100.0
64025;BME280;50266;57.446;26.936;2023-02-14T00:23:28;99836.83;;;-0.69;100.0
64025;BME280;50266;57.446;26.936;2023-02-14T00:24:28;99834.87;;;-0.61;100.0
64025;BME280;50266;57.446;26.936;2023-02-14T00:25:28;99838.89;;;-0.56;100.0
64025;BME280;50266;57.446;26.936;2023-02-14T00:26:28;99842.6;;;-0.62;100.0
64025;BME280;50266;57.446;26.936;2023-02-14T00:27:28;99839.86;;;-0.64;100.0
64025;BME280;50266;57.446;26.936;2023-02-14T00:28:28;99843.69;;;-0.61;100.0
64025;BME280;50266;57.446;26.936;2023-02-14T00:29:29;99849.48;;;-0.68;100.0
64025;BME280;50266;57.446;26.936;2023-02-14T00:30:28;99850.12;;;-0.58;100.0
64025;BME280;50266;57.446;26.936;2023-02-14T00:31:28;99848.19;;;-0.65;100.0
64025;BME280;50266;57.446;26.936;2023-02-14T00:32:28;99848.73;;;-0.57;100.0
64025;BME280;50266;57.446;26.936;2023-02-14T00:33:28;99844.88;;;-0.5;100.0
64025;BME280;50266;57.446;26.936;2023-02-14T00:34:28;99845.22;;;-0.58;100.0
64025;BME280;50266;57.446;26.936;2023-02-14T00:35:28;99842.78;;;-0.63;100.0
64025;BME280;50266;57.446;26.936;2023-02-14T00:36:28;99843.09;;;-0.57;100.0
64025;BME280;50266;57.446;26.936;2023-02-14T00:37:28;99850.92;;;-0.66;100.0
64025;BME280;50266;57.446;26.936;2023-02-14T00:38:28;99847.55;;;-0.65;100.0
64025;BME280;50266;57.446;26.936;2023-02-14T00:39:28;99849.41;;;-0.79;100.0
64025;BME280;50266;57.446;26.936;2023-02-14T00:40:28;99850.52;;;-0.72;100.0
64025;BME280;50266;57.446;26.936;2023-02-14T00:41:28;99841.29;;;-0.62;100.0
64025;BME280;50266;57.446;26.936;2023-02-14T00:42:28;99843.77;;;-0.67;100.0
64025;BME280;50266;57.446;26.936;2023-02-14T00:43:28;99850.2;;;-0.73;100.0
64025;BME280;50266;57.446;26.936;2023-02-14T00:44:28;99844.11;;;-0.76;100.0
64025;BME280;50266;57.446;26.936;2023-02-14T00:45:28;99848.19;;;-0.76;100.0
64025;BME280;50266;57.446;26.936;2023-02-14T00:46:28;99852.06;;;-0.91;100.0
64025;BME280;50266;57.446;26.936;2023-02-14T00:47:28;99854.39;;;-0.69;100.0
64025;BME280;50266;57.446;26.936;2023-02-14T00:48:28;99851.75;;;-0.75;100.0
64025;BME280;50266;57.446;26.936;2023-02-14T00:49:28;99852.39;;;-0.83;100.0
64025;BME280;50266;57.446;26.936;2023-02-14T00:50:28;99841.7;;;-0.75;100.0
64025;BME280;50266;57.446;26.936;2023-02-14T00:51:29;99856.08;;;-0.73;100.0
64025;BME280;50266;57.446;26.936;2023-02-14T00:52:29;99851.19;;;-0.66;100.0
64025;BME280;50266;57.446;26.936;2023-02-14T00:53:28;99859.3;;;-0.74;100.0
64025;BME280;50266;57.446;26.936;2023-02-14T00:54:28;99862.8;;;-0.72;100.0
64025;BME280;50266;57.446;26.936;2023-02-14T00:55:28;99856.7;;;-0.71;100.0
64025;BME280;50266;57.446;26.936;2023-02-14T00:56:28;99860.59;;;-0.69;100.0
64025;BME280;50266;57.446;26.936;2023-02-14T00:57:28;99864.64;;;-0.75;100.0
64025;BME280;50266;57.446;26.936;2023-02-14T00:58:29;99869.75;;;-0.63;100.0
64025;BME280;50266;57.446;26.936;2023-02-14T00:59:28;99866.67;;;-0.72;100.0
64025;BME280;50266;57.446;26.936;2023-02-14T01:00:29;99870.39;;;-0.74;100.0
64025;BME280;50266;57.446;26.936;2023-02-14T01:01:29;99867.37;;;-0.68;100.0
64025;BME280;50266;57.446;26.936;2023-02-14T01:02:29;99873.2;;;-0.68;100.0
64025;BME280;50266;57.446;26.936;2023-02-14T01:03:29;99867.36;;;-0.64;100.0
64025;BME280;50266;57.446;26.936;2023-02-14T01:04:29;99873.05;;;-0.66;100.0
64025;BME280;50266;57.446;26.936;2023-02-14T01:05:29;99873.98;;;-0.78;100.0
64025;BME280;50266;57.446;26.936;2023-02-14T01:06:29;99870.66;;;-0.74;100.0
64025;BME280;50266;57.446;26.936;2023-02-14T01:07:29;99876.77;;;-0.76;100.0
64025;BME280;50266;57.446;26.936;2023-02-14T01:08:29;99883.16;;;-0.77;100.0
64025;BME280;50266;57.446;26.936;2023-02-14T01:09:29;99881.77;;;-0.75;100.0
64025;BME280;50266;57.446;26.936;2023-02-14T01:10:29;99875.28;;;-0.74;100.0
64025;BME280;50266;57.446;26.936;2023-02-14T01:11:29;99878.21;;;-0.95;100.0
64025;BME280;50266;57.446;26.936;2023-02-14T01:12:29;99879.92;;;-0.75;100.0
64025;BME280;50266;57.446;26.936;2023-02-14T01:13:29;99881.26;;;-0.82;100.0
64025;BME280;50266;57.446;26.936;2023-02-14T01:14:29;99887.34;;;-0.77;100.0
64025;BME280;50266;57.446;26.936;2023-02-14T01:15:29;99881.9;;;-0.77;100.0
64025;BME280;50266;57.446;26.936;2023-02-14T01:16:29;99882.88;;;-0.95;100.0
64025;BME280;50266;57.446;26.936;2023-02-14T01:17:29;99883.3;;;-1.13;100.0
64025;BME280;50266;57.446;26.936;2023-02-14T01:18:29;99880.07;;;-0.92;100.0
64025;BME280;50266;57.446;26.936;2023-02-14T01:19:29;99884.06;;;-0.86;100.0
64025;BME280;50266;57.446;26.936;2023-02-14T01:20:29;99880.01;;;-0.83;100.0
64025;BME280;50266;57.446;26.936;2023-02-14T01:21:30;99880.73;;;-0.89;100.0
64025;BME280;50266;57.446;26.936;2023-02-14T01:22:33;99883.23;;;-0.93;100.0
64025;BME280;50266;57.446;26.936;2023-02-14T01:23:29;99879.99;;;-0.99;100.0
64025;BME280;50266;57.446;26.936;2023-02-14T01:24:29;99881.48;;;-1.01;100.0
64025;BME280;50266;57.446;26.936;2023-02-14T01:25:30;99888.45;;;-1.03;100.0
64025;BME280;50266;57.446;26.936;2023-02-14T01:26:30;99888.09;;;-0.99;100.0
64025;BME280;50266;57.446;26.936;2023-02-14T01:27:30;99889.38;;;-0.97;100.0
64025;BME280;50266;57.446;26.936;2023-02-14T01:28:30;99890.19;;;-0.97;100.0
64025;BME280;50266;57.446;26.936;2023-02-14T01:29:30;99886.92;;;-0.96;100.0
64025;BME280;50266;57.446;26.936;2023-02-14T01:30:30;99889.06;;;-1.14;100.0
64025;BME280;50266;57.446;26.936;2023-02-14T01:31:31;99887.45;;;-0.99;100.0
64025;BME280;50266;57.446;26.936;2023-02-14T01:32:30;99888.22;;;-1.01;100.0
64025;BME280;50266;57.446;26.936;2023-02-14T01:33:30;99886.91;;;-1.0;100.0
64025;BME280;50266;57.446;26.936;2023-02-14T01:34:30;99891.13;;;-1.05;100.0
64025;BME280;50266;57.446;26.936;2023-02-14T01:35:30;99891.89;;;-0.99;100.0
64025;BME280;50266;57.446;26.936;2023-02-14T01:36:31;99895.2;;;-0.94;100.0
64025;BME280;50266;57.446;26.936;2023-02-14T01:37:30;99895.27;;;-0.95;100.0
64025;BME280;50266;57.446;26.936;2023-02-14T01:38:30;99893.45;;;-1.01;100.0
64025;BME280;50266;57.446;26.936;2023-02-14T01:39:30;99896.19;;;-1.14;100.0
64025;BME280;50266;57.446;26.936;2023-02-14T01:40:30;99898.68;;;-1.04;100.0
64025;BME280;50266;57.446;26.936;2023-02-14T01:41:31;99898.02;;;-1.09;100.0
64025;BME280;50266;57.446;26.936;2023-02-14T01:42:31;99899.66;;;-1.05;100.0
64025;BME280;50266;57.446;26.936;2023-02-14T01:43:30;99904.34;;;-1.05;100.0
64025;BME280;50266;57.446;26.936;2023-02-14T01:45:31;99911.4;;;-1.19;100.0
64025;BME280;50266;57.446;26.936;2023-02-14T01:46:32;99903.7;;;-1.11;100.0
64025;BME280;50266;57.446;26.936;2023-02-14T01:47:32;99904.75;;;-1.01;100.0
64025;BME280;50266;57.446;26.936;2023-02-14T01:48:31;99909.41;;;-1.16;100.0
64025;BME280;50266;57.446;26.936;2023-02-14T01:49:32;99903.78;;;-1.25;100.0
64025;BME280;50266;57.446;26.936;2023-02-14T01:50:33;99904.92;;;-1.3;100.0
64025;BME280;50266;57.446;26.936;2023-02-14T01:51:31;99905.41;;;-1.25;100.0
64025;BME280;50266;57.446;26.936;2023-02-14T01:52:32;99905.9;;;-1.23;100.0
64025;BME280;50266;57.446;26.936;2023-02-14T01:53:31;99910.12;;;-1.24;100.0
64025;BME280;50266;57.446;26.936;2023-02-14T01:54:32;99911.41;;;-1.2;100.0
64025;BME280;50266;57.446;26.936;2023-02-14T01:55:32;99911.78;;;-1.26;100.0
64025;BME280;50266;57.446;26.936;2023-02-14T01:56:35;99908.62;;;-1.4;100.0
64025;BME280;50266;57.446;26.936;2023-02-14T01:57:35;99908.55;;;-1.39;100.0
64025;BME280;50266;57.446;26.936;2023-02-14T01:58:33;99912.48;;;-1.4;100.0
64025;BME280;50266;57.446;26.936;2023-02-14T01:59:35;99912.28;;;-1.37;100.0
64025;BME280;50266;57.446;26.936;2023-02-14T02:00:33;99912.45;;;-1.45;100.0
64025;BME280;50266;57.446;26.936;2023-02-14T02:01:33;99912.88;;;-1.36;100.0
64025;BME280;50266;57.446;26.936;2023-02-14T02:02:33;99909.59;;;-1.29;100.0
64025;BME280;50266;57.446;26.936;2023-02-14T02:03:37;99913.09;;;-1.27;100.0
64025;BME280;50266;57.446;26.936;2023-02-14T02:04:37;99904.23;;;-1.19;100.0
64025;BME280;50266;57.446;26.936;2023-02-14T02:05:36;99913.89;;;-1.4;100.0
64025;BME280;50266;57.446;26.936;2023-02-14T02:06:37;99916.87;;;-1.34;100.0
64025;BME280;50266;57.446;26.936;2023-02-14T02:07:36;99911.83;;;-1.26;100.0
64025;BME280;50266;57.446;26.936;2023-02-14T02:08:36;99909.91;;;-1.33;100.0
64025;BME280;50266;57.446;26.936;2023-02-14T02:09:48;99914.67;;;-1.37;100.0
64025;BME280;50266;57.446;26.936;2023-02-14T02:10:36;99916.86;;;-1.28;100.0
64025;BME280;50266;57.446;26.936;2023-02-14T02:11:36;99915.84;;;-1.25;100.0
64025;BME280;50266;57.446;26.936;2023-02-14T02:12:36;99918.09;;;-1.27;100.0
64025;BME280;50266;57.446;26.936;2023-02-14T02:13:36;99916.36;;;-1.43;100.0
64025;BME280;50266;57.446;26.936;2023-02-14T02:14:36;99915.73;;;-1.53;100.0
64025;BME280;50266;57.446;26.936;2023-02-14T02:17:52;99916.44;;;-1.29;100.0
64025;BME280;50266;57.446;26.936;2023-02-14T02:24:17;99928.18;;;-1.48;100.0
64025;BME280;50266;57.446;26.936;2023-02-14T02:27:20;99931.19;;;-1.5;100.0
64025;BME280;50266;57.446;26.936;2023-02-14T02:28:17;99937.55;;;-1.62;100.0
64025;BME280;50266;57.446;26.936;2023-02-14T02:31:36;99945.86;;;-1.57;100.0
64025;BME280;50266;57.446;26.936;2023-02-14T02:32:48;99948.45;;;-1.5;100.0
64025;BME280;50266;57.446;26.936;2023-02-14T02:36:46;99948.49;;;-1.49;100.0
64025;BME280;50266;57.446;26.936;2023-02-14T02:37:50;99948.38;;;-1.4;100.0
64025;BME280;50266;57.446;26.936;2023-02-14T02:38:55;99948.43;;;-1.53;100.0
64025;BME280;50266;57.446;26.936;2023-02-14T02:40:05;99946.73;;;-1.38;100.0
64025;BME280;50266;57.446;26.936;2023-02-14T02:42:18;99944.44;;;-1.43;100.0
64025;BME280;50266;57.446;26.936;2023-02-14T02:47:06;99951.98;;;-1.56;100.0
64025;BME280;50266;57.446;26.936;2023-02-14T02:48:05;99952.94;;;-1.59;100.0
64025;BME280;50266;57.446;26.936;2023-02-14T02:49:12;99950.88;;;-1.54;100.0
64025;BME280;50266;57.446;26.936;2023-02-14T02:50:25;99954.88;;;-1.52;100.0
64025;BME280;50266;57.446;26.936;2023-02-14T02:51:19;99954.22;;;-1.45;100.0
64025;BME280;50266;57.446;26.936;2023-02-14T02:52:26;99956.33;;;-1.51;100.0
64025;BME280;50266;57.446;26.936;2023-02-14T02:53:22;99964.39;;;-1.59;100.0
64025;BME280;50266;57.446;26.936;2023-02-14T02:54:32;99962.5;;;-1.54;100.0
64025;BME280;50266;57.446;26.936;2023-02-14T02:55:28;99958.55;;;-1.61;100.0
64025;BME280;50266;57.446;26.936;2023-02-14T02:56:27;99962.22;;;-1.47;100.0
64025;BME280;50266;57.446;26.936;2023-02-14T02:57:28;99960.52;;;-1.38;100.0
64025;BME280;50266;57.446;26.936;2023-02-14T02:58:31;99966.4;;;-1.47;100.0
64025;BME280;50266;57.446;26.936;2023-02-14T02:59:30;99970.22;;;-1.35;100.0
64025;BME280;50266;57.446;26.936;2023-02-14T03:00:34;99970.23;;;-1.45;100.0
64025;BME280;50266;57.446;26.936;2023-02-14T03:01:33;99972.07;;;-1.41;100.0
64025;BME280;50266;57.446;26.936;2023-02-14T03:02:35;99972.77;;;-1.48;100.0
64025;BME280;50266;57.446;26.936;2023-02-14T03:03:34;99972.86;;;-1.47;100.0
64025;BME280;50266;57.446;26.936;2023-02-14T03:04:34;99975.88;;;-1.36;100.0
64025;BME280;50266;57.446;26.936;2023-02-14T03:05:34;99973.81;;;-1.42;100.0
64025;BME280;50266;57.446;26.936;2023-02-14T03:06:34;99979.61;;;-1.41;100.0
64025;BME280;50266;57.446;26.936;2023-02-14T03:07:34;99978.55;;;-1.32;100.0
64025;BME280;50266;57.446;26.936;2023-02-14T03:08:34;99977.69;;;-1.27;100.0
64025;BME280;50266;57.446;26.936;2023-02-14T03:10:36;99979.62;;;-1.23;100.0
64025;BME280;50266;57.446;26.936;2023-02-14T03:11:35;99985.36;;;-1.29;100.0
64025;BME280;50266;57.446;26.936;2023-02-14T03:12:40;99979.16;;;-1.27;100.0
64025;BME280;50266;57.446;26.936;2023-02-14T03:14:39;99990.61;;;-1.38;100.0
64025;BME280;50266;57.446;26.936;2023-02-14T03:19:49;99992.14;;;-1.39;100.0
64025;BME280;50266;57.446;26.936;2023-02-14T03:23:03;99989.27;;;-1.4;100.0
64025;BME280;50266;57.446;26.936;2023-02-14T03:25:10;99987.92;;;-1.41;100.0
64025;BME280;50266;57.446;26.936;2023-02-14T03:27:13;99989.32;;;-1.39;100.0
64025;BME280;50266;57.446;26.936;2023-02-14T03:28:21;99990.59;;;-1.56;100.0
64025;BME280;50266;57.446;26.936;2023-02-14T03:31:23;99992.65;;;-1.16;100.0
64025;BME280;50266;57.446;26.936;2023-02-14T03:32:34;99986.44;;;-1.28;100.0
64025;BME280;50266;57.446;26.936;2023-02-14T03:33:29;99998.55;;;-1.54;100.0
64025;BME280;50266;57.446;26.936;2023-02-14T03:34:33;99995.98;;;-1.23;100.0
64025;BME280;50266;57.446;26.936;2023-02-14T03:35:34;99996.3;;;-1.23;100.0
64025;BME280;50266;57.446;26.936;2023-02-14T03:36:44;100005.66;;;-1.46;100.0
64025;BME280;50266;57.446;26.936;2023-02-14T03:37:35;100005.73;;;-1.34;100.0
64025;BME280;50266;57.446;26.936;2023-02-14T03:38:44;100005.41;;;-1.56;100.0
64025;BME280;50266;57.446;26.936;2023-02-14T03:39:39;100010.09;;;-1.36;100.0
64025;BME280;50266;57.446;26.936;2023-02-14T03:40:40;100007.84;;;-1.33;100.0
64025;BME280;50266;57.446;26.936;2023-02-14T03:41:41;100015.11;;;-1.39;100.0
64025;BME280;50266;57.446;26.936;2023-02-14T03:42:42;100007.69;;;-1.56;100.0
64025;BME280;50266;57.446;26.936;2023-02-14T03:43:43;100010.0;;;-1.47;100.0
64025;BME280;50266;57.446;26.936;2023-02-14T03:44:41;100015.69;;;-1.36;100.0
64025;BME280;50266;57.446;26.936;2023-02-14T03:45:44;100012.39;;;-1.31;100.0
64025;BME280;50266;57.446;26.936;2023-02-14T03:46:46;100018.73;;;-1.24;100.0
64025;BME280;50266;57.446;26.936;2023-02-14T03:47:45;100020.72;;;-1.34;100.0
64025;BME280;50266;57.446;26.936;2023-02-14T03:48:45;100021.86;;;-1.19;100.0
64025;BME280;50266;57.446;26.936;2023-02-14T03:49:49;100023.24;;;-1.36;100.0
64025;BME280;50266;57.446;26.936;2023-02-14T03:50:47;100021.94;;;-1.24;100.0
64025;BME280;50266;57.446;26.936;2023-02-14T03:51:47;100020.3;;;-1.09;100.0
64025;BME280;50266;57.446;26.936;2023-02-14T03:52:48;100020.56;;;-1.14;100.0
64025;BME280;50266;57.446;26.936;2023-02-14T03:53:48;100022.83;;;-1.19;100.0
64025;BME280;50266;57.446;26.936;2023-02-14T03:54:47;100027.98;;;-1.26;100.0
64025;BME280;50266;57.446;26.936;2023-02-14T03:55:53;100032.01;;;-1.27;100.0
64025;BME280;50266;57.446;26.936;2023-02-14T03:57:07;100033.55;;;-1.2;100.0
64025;BME280;50266;57.446;26.936;2023-02-14T03:57:56;100032.86;;;-1.16;100.0
64025;BME280;50266;57.446;26.936;2023-02-14T03:58:55;100039.16;;;-1.22;100.0
64025;BME280;50266;57.446;26.936;2023-02-14T03:59:54;100046.02;;;-1.12;100.0
64025;BME280;50266;57.446;26.936;2023-02-14T04:00:56;100046.11;;;-1.15;100.0
64025;BME280;50266;57.446;26.936;2023-02-14T04:01:56;100047.19;;;-1.14;100.0
64025;BME280;50266;57.446;26.936;2023-02-14T04:02:57;100046.36;;;-1.14;100.0
64025;BME280;50266;57.446;26.936;2023-02-14T04:03:56;100048.36;;;-1.17;100.0
64025;BME280;50266;57.446;26.936;2023-02-14T04:04:56;100050.55;;;-1.19;100.0
64025;BME280;50266;57.446;26.936;2023-02-14T04:05:56;100055.16;;;-1.19;100.0
64025;BME280;50266;57.446;26.936;2023-02-14T04:06:56;100056.72;;;-1.23;100.0
64025;BME280;50266;57.446;26.936;2023-02-14T04:07:56;100057.52;;;-1.25;100.0
64025;BME280;50266;57.446;26.936;2023-02-14T04:08:56;100060.4;;;-1.3;100.0
64025;BME280;50266;57.446;26.936;2023-02-14T04:09:56;100063.45;;;-1.16;100.0
64025;BME280;50266;57.446;26.936;2023-02-14T04:10:57;100066.7;;;-1.16;100.0
64025;BME280;50266;57.446;26.936;2023-02-14T04:11:56;100068.78;;;-1.24;100.0
64025;BME280;50266;57.446;26.936;2023-02-14T04:12:56;100068.12;;;-1.25;100.0
64025;BME280;50266;57.446;26.936;2023-02-14T04:13:56;100072.23;;;-1.3;100.0
64025;BME280;50266;57.446;26.936;2023-02-14T04:14:56;100073.15;;;-1.35;100.0
64025;BME280;50266;57.446;26.936;2023-02-14T04:15:56;100073.8;;;-1.58;100.0
64025;BME280;50266;57.446;26.936;2023-02-14T04:16:56;100072.36;;;-1.63;100.0
64025;BME280;50266;57.446;26.936;2023-02-14T04:17:56;100071.84;;;-1.59;100.0
64025;BME280;50266;57.446;26.936;2023-02-14T04:18:56;100071.03;;;-1.71;100.0
64025;BME280;50266;57.446;26.936;2023-02-14T04:19:56;100077.66;;;-1.79;100.0
64025;BME280;50266;57.446;26.936;2023-02-14T04:20:56;100080.92;;;-1.72;100.0
64025;BME280;50266;57.446;26.936;2023-02-14T04:21:56;100081.02;;;-1.51;100.0
64025;BME280;50266;57.446;26.936;2023-02-14T04:22:56;100077.47;;;-1.57;100.0
64025;BME280;50266;57.446;26.936;2023-02-14T04:23:56;100076.75;;;-1.62;100.0
64025;BME280;50266;57.446;26.936;2023-02-14T04:24:56;100081.38;;;-1.75;100.0
64025;BME280;50266;57.446;26.936;2023-02-14T04:25:56;100082.97;;;-1.79;100.0
64025;BME280;50266;57.446;26.936;2023-02-14T04:26:56;100089.71;;;-1.93;100.0
64025;BME280;50266;57.446;26.936;2023-02-14T04:27:56;100088.33;;;-1.75;100.0
64025;BME280;50266;57.446;26.936;2023-02-14T04:28:56;100092.55;;;-1.66;100.0
64025;BME280;50266;57.446;26.936;2023-02-14T04:29:56;100094.64;;;-1.7;100.0
64025;BME280;50266;57.446;26.936;2023-02-14T04:30:59;100091.69;;;-1.67;100.0
64025;BME280;50266;57.446;26.936;2023-02-14T04:31:57;100094.03;;;-1.86;100.0
64025;BME280;50266;57.446;26.936;2023-02-14T04:32:57;100097.23;;;-1.9;100.0
64025;BME280;50266;57.446;26.936;2023-02-14T04:33:57;100090.45;;;-1.9;100.0
64025;BME280;50266;57.446;26.936;2023-02-14T04:34:57;100094.06;;;-1.95;100.0
64025;BME280;50266;57.446;26.936;2023-02-14T04:35:57;100097.97;;;-1.96;100.0
64025;BME280;50266;57.446;26.936;2023-02-14T04:36:57;100101.81;;;-1.94;100.0
64025;BME280;50266;57.446;26.936;2023-02-14T04:37:57;100098.98;;;-2.01;100.0
64025;BME280;50266;57.446;26.936;2023-02-14T04:38:57;100103.84;;;-1.98;100.0
64025;BME280;50266;57.446;26.936;2023-02-14T04:39:57;100105.8;;;-2.0;100.0
64025;BME280;50266;57.446;26.936;2023-02-14T04:40:57;100109.66;;;-1.99;100.0
64025;BME280;50266;57.446;26.936;2023-02-14T04:41:57;100116.0;;;-1.99;100.0
64025;BME280;50266;57.446;26.936;2023-02-14T04:42:57;100114.55;;;-1.9;100.0
64025;BME280;50266;57.446;26.936;2023-02-14T04:43:57;100126.45;;;-1.92;100.0
64025;BME280;50266;57.446;26.936;2023-02-14T04:44:57;100124.02;;;-2.07;100.0
64025;BME280;50266;57.446;26.936;2023-02-14T04:45:57;100126.11;;;-2.09;100.0
64025;BME280;50266;57.446;26.936;2023-02-14T04:46:57;100139.86;;;-2.11;100.0
64025;BME280;50266;57.446;26.936;2023-02-14T04:47:57;100136.53;;;-2.07;100.0
64025;BME280;50266;57.446;26.936;2023-02-14T04:48:57;100139.19;;;-1.89;100.0
64025;BME280;50266;57.446;26.936;2023-02-14T04:49:57;100142.5;;;-2.03;100.0
64025;BME280;50266;57.446;26.936;2023-02-14T04:50:57;100135.84;;;-2.11;100.0
64025;BME280;50266;57.446;26.936;2023-02-14T04:51:57;100142.84;;;-2.06;100.0
64025;BME280;50266;57.446;26.936;2023-02-14T04:52:57;100140.62;;;-2.15;100.0
64025;BME280;50266;57.446;26.936;2023-02-14T04:53:57;100139.3;;;-2.05;100.0
64025;BME280;50266;57.446;26.936;2023-02-14T04:54:57;100143.0;;;-1.94;100.0
64025;BME280;50266;57.446;26.936;2023-02-14T04:55:57;100140.39;;;-1.92;100.0
64025;BME280;50266;57.446;26.936;2023-02-14T04:56:57;100146.77;;;-1.99;100.0
64025;BME280;50266;57.446;26.936;2023-02-14T04:57:57;100142.54;;;-1.83;100.0
64025;BME280;50266;57.446;26.936;2023-02-14T04:58:57;100142.59;;;-1.87;100.0
64025;BME280;50266;57.446;26.936;2023-02-14T04:59:57;100144.78;;;-1.91;100.0
64025;BME280;50266;57.446;26.936;2023-02-14T05:00:57;100147.47;;;-1.86;100.0
64025;BME280;50266;57.446;26.936;2023-02-14T05:01:57;100149.47;;;-1.79;100.0
64025;BME280;50266;57.446;26.936;2023-02-14T05:02:57;100146.06;;;-1.87;100.0
64025;BME280;50266;57.446;26.936;2023-02-14T05:03:57;100152.3;;;-1.97;100.0
64025;BME280;50266;57.446;26.936;2023-02-14T05:04:57;100153.78;;;-2.03;100.0
64025;BME280;50266;57.446;26.936;2023-02-14T05:05:57;100155.13;;;-1.89;100.0
64025;BME280;50266;57.446;26.936;2023-02-14T05:06:57;100155.94;;;-1.87;100.0
64025;BME280;50266;57.446;26.936;2023-02-14T05:07:57;100161.05;;;-1.82;100.0
64025;BME280;50266;57.446;26.936;2023-02-14T05:08:57;100160.92;;;-1.96;100.0
64025;BME280;50266;57.446;26.936;2023-02-14T05:09:57;100168.81;;;-1.9;100.0
64025;BME280;50266;57.446;26.936;2023-02-14T05:10:57;100162.81;;;-1.94;100.0
64025;BME280;50266;57.446;26.936;2023-02-14T05:11:57;100162.03;;;-1.91;100.0
64025;BME280;50266;57.446;26.936;2023-02-14T05:12:57;100161.88;;;-2.25;100.0
64025;BME280;50266;57.446;26.936;2023-02-14T05:13:57;100161.17;;;-2.04;100.0
64025;BME280;50266;57.446;26.936;2023-02-14T05:14:57;100161.61;;;-2.04;100.0
64025;BME280;50266;57.446;26.936;2023-02-14T05:15:57;100166.33;;;-2.05;100.0
64025;BME280;50266;57.446;26.936;2023-02-14T05:16:57;100167.25;;;-2.05;100.0
64025;BME280;50266;57.446;26.936;2023-02-14T05:17:57;100167.36;;;-1.92;100.0
64025;BME280;50266;57.446;26.936;2023-02-14T05:18:57;100165.18;;;-2.09;100.0
64025;BME280;50266;57.446;26.936;2023-02-14T05:19:57;100162.19;;;-2.0;100.0
64025;BME280;50266;57.446;26.936;2023-02-14T05:20:57;100159.12;;;-1.94;100.0
64025;BME280;50266;57.446;26.936;2023-02-14T05:21:57;100159.92;;;-2.03;100.0
64025;BME280;50266;57.446;26.936;2023-02-14T05:22:57;100159.7;;;-2.1;100.0
64025;BME280;50266;57.446;26.936;2023-02-14T05:23:58;100152.55;;;-2.04;100.0
64025;BME280;50266;57.446;26.936;2023-02-14T05:24:57;100151.73;;;-2.06;100.0
64025;BME280;50266;57.446;26.936;2023-02-14T05:25:57;100150.58;;;-2.01;100.0
64025;BME280;50266;57.446;26.936;2023-02-14T05:26:57;100146.18;;;-1.89;100.0
64025;BME280;50266;57.446;26.936;2023-02-14T05:27:57;100141.73;;;-1.88;100.0
64025;BME280;50266;57.446;26.936;2023-02-14T05:28:57;100145.36;;;-1.89;100.0
64025;BME280;50266;57.446;26.936;2023-02-14T05:29:57;100152.91;;;-1.88;100.0
64025;BME280;50266;57.446;26.936;2023-02-14T05:30:57;100144.26;;;-1.96;100.0
64025;BME280;50266;57.446;26.936;2023-02-14T05:31:57;100140.3;;;-1.95;100.0
64025;BME280;50266;57.446;26.936;2023-02-14T05:32:57;100149.16;;;-1.88;100.0
64025;BME280;50266;57.446;26.936;2023-02-14T05:33:57;100150.74;;;-1.89;100.0
64025;BME280;50266;57.446;26.936;2023-02-14T05:34:57;100155.16;;;-1.94;100.0
64025;BME280;50266;57.446;26.936;2023-02-14T05:35:58;100159.11;;;-1.92;100.0
64025;BME280;50266;57.446;26.936;2023-02-14T05:36:57;100164.84;;;-1.86;100.0
64025;BME280;50266;57.446;26.936;2023-02-14T05:37:57;100162.67;;;-1.87;100.0
64025;BME280;50266;57.446;26.936;2023-02-14T05:38:57;100169.78;;;-1.88;100.0
64025;BME280;50266;57.446;26.936;2023-02-14T05:39:57;100170.59;;;-1.88;100.0
64025;BME280;50266;57.446;26.936;2023-02-14T05:40:58;100169.06;;;-1.98;100.0
64025;BME280;50266;57.446;26.936;2023-02-14T05:41:57;100173.66;;;-1.92;100.0
64025;BME280;50266;57.446;26.936;2023-02-14T05:42:58;100178.8;;;-1.9;100.0
64025;BME280;50266;57.446;26.936;2023-02-14T05:43:58;100181.26;;;-1.93;100.0
64025;BME280;50266;57.446;26.936;2023-02-14T05:44:58;100175.33;;;-1.91;100.0
64025;BME280;50266;57.446;26.936;2023-02-14T05:45:58;100172.19;;;-1.92;100.0
64025;BME280;50266;57.446;26.936;2023-02-14T05:46:58;100170.59;;;-1.98;100.0
64025;BME280;50266;57.446;26.936;2023-02-14T05:47:58;100176.31;;;-1.93;100.0